LPPS/PXO METAR and TAF weather

Enter ICAO airport designator
Station Type Date Time Source
LPPS METAR 2019/05/20 11:00 UTC NOAA

LPPS 201100Z 02013KT 9999 FEW015 20/13 Q1020


Station Type Date Time Source
LPPS Decoded METAR 2019/05/20 11:00 UTC NOAA

Porto Santo, Portugal (LPPS) 33-04N 016-21W 82M
May 20, 2019 - 07:00 AM EDT / 2019.05.20 1100 UTC
Wind: from the NNE (020 degrees) at 15 MPH (13 KT):0
Visibility: greater than 7 mile(s):0
Sky conditions: mostly clear
Temperature: 68 F (20 C)
Dew Point: 55 F (13 C)
Relative Humidity: 64%
Pressure (altimeter): 30.12 in. Hg (1020 hPa)
ob: LPPS 201100Z 02013KT 9999 FEW015 20/13 Q1020
cycle: 11

Station Type Date Time Source
LPPS TAF 2019/05/20 06:18 UTC NOAA

TAF LPPS 200500Z 2006/2112 01010KT 9999 SCT012 BKN030
TEMPO 2006/2112 SCT015

Example: see airport list